createdAt,value
2023-05-14T00:01:43.369Z,13.30
2023-05-14T00:04:11.701Z,13.30
2023-05-14T00:06:39.998Z,13.40
2023-05-14T00:09:08.237Z,13.50
2023-05-14T00:11:37.815Z,13.50
2023-05-14T00:14:06.418Z,13.50
2023-05-14T00:16:34.817Z,13.40
2023-05-14T00:19:03.778Z,13.40
2023-05-14T00:21:32.729Z,13.40
2023-05-14T00:24:01.251Z,13.50
2023-05-14T00:26:29.577Z,13.60
2023-05-14T00:28:59.198Z,13.70
2023-05-14T00:31:27.621Z,13.80
2023-05-14T00:33:55.908Z,13.80
2023-05-14T00:36:24.098Z,13.90
2023-05-14T00:38:52.377Z,13.90
2023-05-14T00:41:21.086Z,13.80
2023-05-14T00:43:49.346Z,13.80
2023-05-14T00:46:19.491Z,13.80
2023-05-14T00:48:48.330Z,13.70
2023-05-14T00:51:17.214Z,13.80
2023-05-14T00:53:45.502Z,13.80
2023-05-14T00:56:14.072Z,13.80
2023-05-14T00:58:42.340Z,13.70
2023-05-14T01:01:12.245Z,13.70
2023-05-14T01:03:42.295Z,13.60
2023-05-14T01:06:18.491Z,13.50
2023-05-14T01:09:00.942Z,13.50
2023-05-14T01:11:35.228Z,13.50
2023-05-14T01:14:14.638Z,13.50
2023-05-14T01:16:45.041Z,13.50
2023-05-14T01:19:28.623Z,13.50
2023-05-14T01:21:58.230Z,13.50
2023-05-14T01:24:26.549Z,13.50
2023-05-14T01:26:58.503Z,13.40
2023-05-14T01:29:30.311Z,13.40
2023-05-14T01:32:01.360Z,13.30
2023-05-14T01:34:31.321Z,13.30
2023-05-14T01:37:02.731Z,13.30
2023-05-14T01:39:32.546Z,13.20
2023-05-14T01:42:01.906Z,13.20
2023-05-14T01:44:30.202Z,13.10
2023-05-14T01:46:58.612Z,13.10
2023-05-14T01:49:26.898Z,13.10
2023-05-14T01:51:55.214Z,13.10
2023-05-14T01:54:24.824Z,13.00
2023-05-14T01:56:53.138Z,12.90
2023-05-14T01:59:21.428Z,12.80
2023-05-14T02:01:49.680Z,12.80
2023-05-14T02:04:18.423Z,12.70
2023-05-14T02:06:46.741Z,12.70
2023-05-14T02:09:15.028Z,12.70
2023-05-14T02:11:44.672Z,12.70
2023-05-14T02:14:13.021Z,12.70
2023-05-14T02:16:41.407Z,12.50
2023-05-14T02:19:09.771Z,12.40
2023-05-14T02:21:38.062Z,12.50
2023-05-14T02:24:06.735Z,12.50
2023-05-14T02:26:35.019Z,12.40
2023-05-14T02:29:04.711Z,12.60
2023-05-14T02:31:33.023Z,12.40
2023-05-14T02:34:03.166Z,12.10
2023-05-14T02:36:31.882Z,12.10
2023-05-14T02:39:01.412Z,12.20
2023-05-14T02:41:29.650Z,12.30
2023-05-14T02:43:57.953Z,12.10
2023-05-14T02:46:27.674Z,12.00
2023-05-14T02:48:56.007Z,12.10
2023-05-14T02:51:24.458Z,12.00
2023-05-14T02:53:52.644Z,11.90
2023-05-14T02:56:21.125Z,11.80
2023-05-14T02:58:49.441Z,11.80
2023-05-14T03:01:18.838Z,11.80
2023-05-14T03:03:49.395Z,11.70
2023-05-14T03:06:18.135Z,11.80
2023-05-14T03:08:46.791Z,11.80
2023-05-14T03:11:15.147Z,11.80
2023-05-14T03:13:43.357Z,11.70
2023-05-14T03:16:12.431Z,11.50
2023-05-14T03:18:40.796Z,11.40
2023-05-14T03:21:10.435Z,11.40
2023-05-14T03:23:38.686Z,11.50
2023-05-14T03:26:07.050Z,11.50
2023-05-14T03:28:35.299Z,11.40
2023-05-14T03:31:03.688Z,11.50
2023-05-14T03:33:32.215Z,11.40
2023-05-14T03:36:00.454Z,11.40
2023-05-14T03:38:30.033Z,11.40
2023-05-14T03:40:59.478Z,11.30
2023-05-14T03:43:27.764Z,11.30
2023-05-14T03:45:56.155Z,11.30
2023-05-14T03:48:24.609Z,11.20
2023-05-14T03:50:52.910Z,11.20
2023-05-14T03:53:21.156Z,11.20
2023-05-14T03:55:50.837Z,11.10
2023-05-14T03:58:19.430Z,11.10
2023-05-14T04:00:47.718Z,11.10
2023-05-14T04:03:16.119Z,11.10
2023-05-14T04:05:44.607Z,11.10
2023-05-14T04:08:13.011Z,11.10
2023-05-14T04:10:41.326Z,11.20
2023-05-14T04:13:11.015Z,11.20
2023-05-14T04:15:39.520Z,11.10
2023-05-14T04:18:07.851Z,11.10
2023-05-14T04:20:37.027Z,11.10
2023-05-14T04:23:05.460Z,11.10
2023-05-14T04:25:33.858Z,11.00
2023-05-14T04:28:02.015Z,10.80
2023-05-14T04:30:31.811Z,10.80
2023-05-14T04:33:00.242Z,10.80
2023-05-14T04:35:28.685Z,10.90
2023-05-14T04:37:56.971Z,11.00
2023-05-14T04:40:25.760Z,11.00
2023-05-14T04:42:54.229Z,11.10
2023-05-14T04:45:22.541Z,11.10
2023-05-14T04:47:52.245Z,11.10
2023-05-14T04:50:22.172Z,11.20
2023-05-14T04:52:50.790Z,11.20
2023-05-14T04:55:19.079Z,11.20
2023-05-14T04:57:47.331Z,11.20
2023-05-14T05:00:17.887Z,11.20
2023-05-14T05:02:46.279Z,11.30
2023-05-14T05:05:15.936Z,11.40
2023-05-14T05:07:44.278Z,11.50
2023-05-14T05:10:12.814Z,11.50
2023-05-14T05:12:41.006Z,11.70
2023-05-14T05:15:10.805Z,11.70
2023-05-14T05:17:39.053Z,11.80
2023-05-14T05:20:10.186Z,11.80
2023-05-14T05:22:39.704Z,11.90
2023-05-14T05:25:09.238Z,11.90
2023-05-14T05:27:37.479Z,12.00
2023-05-14T05:30:07.445Z,12.10
2023-05-14T05:32:36.275Z,12.20
2023-05-14T05:35:05.092Z,12.30
2023-05-14T05:37:33.552Z,12.40
2023-05-14T05:40:04.295Z,12.40
2023-05-14T05:42:32.542Z,12.50
2023-05-14T05:45:00.850Z,12.50
2023-05-14T05:47:30.133Z,12.50
2023-05-14T05:49:58.422Z,12.60
2023-05-14T05:52:26.728Z,12.70
2023-05-14T05:54:55.036Z,12.70
2023-05-14T05:57:27.197Z,12.80
2023-05-14T05:59:55.516Z,12.80
2023-05-14T06:02:25.199Z,12.90
2023-05-14T06:04:53.841Z,13.00
2023-05-14T06:07:22.263Z,13.00
2023-05-14T06:09:50.484Z,13.10
2023-05-14T06:12:18.777Z,13.20
2023-05-14T06:14:48.388Z,13.20
2023-05-14T06:17:16.683Z,13.20
2023-05-14T06:19:44.889Z,13.30
2023-05-14T06:22:13.289Z,13.30
2023-05-14T06:24:41.609Z,13.50
2023-05-14T06:27:10.659Z,13.60
2023-05-14T06:29:39.187Z,13.70
2023-05-14T06:32:10.381Z,13.70
2023-05-14T06:34:38.632Z,13.70
2023-05-14T06:37:07.173Z,13.80
2023-05-14T06:39:35.449Z,13.90
2023-05-14T06:42:03.810Z,14.00
2023-05-14T06:44:32.396Z,13.90
2023-05-14T06:47:00.724Z,14.00
2023-05-14T06:49:30.347Z,14.10
2023-05-14T06:51:58.561Z,14.20
2023-05-14T06:54:26.927Z,14.20
2023-05-14T06:56:55.359Z,14.20
2023-05-14T06:59:23.655Z,14.30
2023-05-14T07:01:52.146Z,14.40
2023-05-14T07:04:20.779Z,14.40
2023-05-14T07:06:50.537Z,14.50
2023-05-14T07:09:19.013Z,14.60
2023-05-14T07:11:47.237Z,14.60
2023-05-14T07:14:15.995Z,14.70
2023-05-14T07:16:45.797Z,14.80
2023-05-14T07:19:14.456Z,14.80
2023-05-14T07:21:42.773Z,14.90
2023-05-14T07:24:12.571Z,15.00
2023-05-14T07:26:40.851Z,15.00
2023-05-14T07:29:09.410Z,15.10
2023-05-14T07:31:37.796Z,15.20
2023-05-14T07:34:06.082Z,15.30
2023-05-14T07:36:34.453Z,15.30
2023-05-14T07:39:02.855Z,15.40
2023-05-14T07:41:32.561Z,15.50
2023-05-14T07:44:05.115Z,15.60
2023-05-14T07:46:33.446Z,15.60
2023-05-14T07:49:01.758Z,15.70
2023-05-14T07:51:30.390Z,15.80
2023-05-14T07:53:58.736Z,15.90
2023-05-14T07:56:27.196Z,16.00
2023-05-14T07:58:56.788Z,16.10
2023-05-14T08:01:25.173Z,16.20
2023-05-14T08:03:53.678Z,16.20
2023-05-14T08:06:22.843Z,16.20
2023-05-14T08:08:51.096Z,16.20
2023-05-14T08:11:19.439Z,16.20
2023-05-14T08:13:47.698Z,16.20
2023-05-14T08:16:17.398Z,16.20
2023-05-14T08:18:45.794Z,16.40
2023-05-14T08:21:14.051Z,16.50
2023-05-14T08:23:42.317Z,16.60
2023-05-14T08:26:10.761Z,16.70
2023-05-14T08:28:38.998Z,16.80
2023-05-14T08:31:07.277Z,16.90
2023-05-14T08:33:36.840Z,16.80
2023-05-14T08:36:05.853Z,16.90
2023-05-14T08:38:34.123Z,16.90
2023-05-14T08:41:02.681Z,17.10
2023-05-14T08:43:46.527Z,17.10
2023-05-14T08:46:16.209Z,17.20
2023-05-14T08:48:54.179Z,17.20
2023-05-14T08:51:22.613Z,17.30
2023-05-14T08:53:51.307Z,17.30
2023-05-14T08:56:21.666Z,17.40
2023-05-14T08:58:49.962Z,17.50
2023-05-14T09:01:20.152Z,17.60
2023-05-14T09:03:50.381Z,17.70
2023-05-14T09:06:19.291Z,17.70
2023-05-14T09:08:48.058Z,17.80
2023-05-14T09:11:16.294Z,17.70
2023-05-14T09:13:44.543Z,17.70
2023-05-14T09:16:12.920Z,17.80
2023-05-14T09:18:45.805Z,17.80
2023-05-14T09:21:17.070Z,17.90
2023-05-14T09:23:47.815Z,18.00
2023-05-14T09:26:19.105Z,18.10
2023-05-14T09:28:47.390Z,18.20
2023-05-14T09:31:15.672Z,18.00
2023-05-14T09:33:44.539Z,18.10
2023-05-14T09:36:12.952Z,18.00
2023-05-14T09:38:42.647Z,18.00
2023-05-14T09:41:11.094Z,18.00
2023-05-14T09:43:39.427Z,18.00
2023-05-14T09:46:07.940Z,18.10
2023-05-14T09:48:36.342Z,18.20
2023-05-14T09:51:05.618Z,18.50
2023-05-14T09:53:35.584Z,18.60
2023-05-14T09:56:05.782Z,18.60
2023-05-14T09:58:34.046Z,18.60
2023-05-14T10:01:03.140Z,18.70
2023-05-14T10:03:32.004Z,19.00
2023-05-14T10:06:06.111Z,18.90
2023-05-14T10:08:36.743Z,19.00
2023-05-14T10:11:12.899Z,19.10
2023-05-14T10:13:43.692Z,19.20
2023-05-14T10:16:18.404Z,19.20
2023-05-14T10:18:52.900Z,19.20
2023-05-14T10:21:23.888Z,19.20
2023-05-14T10:23:53.312Z,19.30
2023-05-14T10:26:24.069Z,19.50
2023-05-14T10:28:52.526Z,19.60
2023-05-14T10:31:24.943Z,19.50
2023-05-14T10:33:54.679Z,19.80
2023-05-14T10:36:24.404Z,19.70
2023-05-14T10:38:58.015Z,19.60
2023-05-14T10:41:27.727Z,19.50
2023-05-14T10:43:59.666Z,19.70
2023-05-14T10:46:27.979Z,19.70
2023-05-14T10:48:56.629Z,19.80
2023-05-14T10:51:25.077Z,20.00
2023-05-14T10:53:54.371Z,20.30
2023-05-14T10:56:23.246Z,20.60
2023-05-14T10:58:52.943Z,20.70
2023-05-14T11:01:25.628Z,20.60
2023-05-14T11:03:55.911Z,20.40
2023-05-14T11:06:24.371Z,20.10
2023-05-14T11:08:53.694Z,19.90
2023-05-14T11:11:22.174Z,20.00
2023-05-14T11:13:52.563Z,20.40
2023-05-14T11:16:24.214Z,20.80
2023-05-14T11:19:03.518Z,20.80
2023-05-14T11:21:33.027Z,21.00
2023-05-14T11:24:03.770Z,21.30
2023-05-14T11:26:34.011Z,21.20
2023-05-14T11:29:03.817Z,21.20
2023-05-14T11:31:32.105Z,21.30
2023-05-14T11:34:00.985Z,21.10
2023-05-14T11:36:29.190Z,21.00
2023-05-14T11:38:57.506Z,21.10
2023-05-14T11:41:28.076Z,21.20
2023-05-14T11:43:56.131Z,21.20
2023-05-14T11:46:26.224Z,21.20
2023-05-14T11:48:54.586Z,21.20
2023-05-14T11:51:24.693Z,21.10
2023-05-14T11:53:53.121Z,21.00
2023-05-14T11:56:23.368Z,20.80
2023-05-14T11:58:57.230Z,20.60
2023-05-14T12:01:28.571Z,20.50
2023-05-14T12:03:56.949Z,20.30
2023-05-14T12:06:32.423Z,20.20
2023-05-14T12:09:01.599Z,20.20
2023-05-14T12:11:32.927Z,20.20
2023-05-14T12:14:01.288Z,20.50
2023-05-14T12:16:34.466Z,20.70
2023-05-14T12:19:04.429Z,20.80
2023-05-14T12:21:33.108Z,20.50
2023-05-14T12:24:01.479Z,20.40
2023-05-14T12:26:33.728Z,20.50
2023-05-14T12:29:03.721Z,20.50
2023-05-14T12:31:34.764Z,20.50
2023-05-14T12:34:03.498Z,20.70
2023-05-14T12:36:32.592Z,20.80
2023-05-14T12:39:03.456Z,20.90
2023-05-14T12:41:32.222Z,20.80
2023-05-14T12:44:01.589Z,20.80
2023-05-14T12:46:30.086Z,20.80
2023-05-14T12:48:59.708Z,20.90
2023-05-14T12:51:27.960Z,21.00
2023-05-14T12:53:56.256Z,20.90
2023-05-14T12:56:28.270Z,21.00
2023-05-14T12:58:57.324Z,21.00
2023-05-14T13:01:25.915Z,21.00
2023-05-14T13:03:55.454Z,21.10
2023-05-14T13:06:25.175Z,21.20
2023-05-14T13:08:53.494Z,21.30
2023-05-14T13:11:21.794Z,21.20
2023-05-14T13:13:50.148Z,21.10
2023-05-14T13:16:18.432Z,21.10
2023-05-14T13:18:46.788Z,21.10
2023-05-14T13:21:15.035Z,21.10
2023-05-14T13:23:44.703Z,21.00
2023-05-14T13:26:12.990Z,21.00
2023-05-14T13:28:42.079Z,21.10
2023-05-14T13:31:12.097Z,21.20
2023-05-14T13:33:42.856Z,21.20
2023-05-14T13:36:12.986Z,21.20
2023-05-14T13:38:41.387Z,21.20
2023-05-14T13:41:11.040Z,21.20
2023-05-14T13:43:39.441Z,21.20
2023-05-14T13:46:08.282Z,21.20
2023-05-14T13:48:37.466Z,21.20
2023-05-14T13:51:05.796Z,21.10
2023-05-14T13:53:34.122Z,21.00
2023-05-14T13:56:02.562Z,20.90
2023-05-14T13:58:32.224Z,20.90
2023-05-14T14:01:00.576Z,20.80
2023-05-14T14:03:28.832Z,20.80
2023-05-14T14:05:57.134Z,20.80
2023-05-14T14:08:25.480Z,20.80
2023-05-14T14:10:55.177Z,20.80
2023-05-14T14:13:24.444Z,20.80
2023-05-14T14:15:54.420Z,20.70
2023-05-14T14:18:22.772Z,20.70
2023-05-14T14:20:51.003Z,20.70
2023-05-14T14:23:19.570Z,20.70
2023-05-14T14:25:47.939Z,20.60
2023-05-14T14:28:16.221Z,20.60
2023-05-14T14:30:44.846Z,20.70
2023-05-14T14:33:14.522Z,20.70
2023-05-14T14:35:42.856Z,20.60
2023-05-14T14:38:11.199Z,20.60
2023-05-14T14:40:39.795Z,20.60
2023-05-14T14:43:08.079Z,20.70
2023-05-14T14:45:36.438Z,20.50
2023-05-14T14:48:27.214Z,20.40
2023-05-14T14:50:56.527Z,20.30
2023-05-14T14:53:25.768Z,20.30
2023-05-14T14:55:54.360Z,20.20
2023-05-14T14:58:23.107Z,20.20
2023-05-14T15:00:55.765Z,20.20
2023-05-14T15:03:26.870Z,20.20
2023-05-14T15:05:55.443Z,20.20
2023-05-14T15:08:27.684Z,20.10
2023-05-14T15:10:56.945Z,20.20
2023-05-14T15:13:26.828Z,20.00
2023-05-14T15:15:55.446Z,20.10
2023-05-14T15:18:25.065Z,20.00
2023-05-14T15:20:53.732Z,20.10
2023-05-14T15:23:22.067Z,20.10
2023-05-14T15:25:50.531Z,20.00
2023-05-14T15:28:18.999Z,20.00
2023-05-14T15:30:49.538Z,20.00
2023-05-14T15:33:19.446Z,19.90
2023-05-14T15:35:49.329Z,19.90
2023-05-14T15:38:17.608Z,19.90
2023-05-14T15:40:45.901Z,20.00
2023-05-14T15:43:14.159Z,20.00
2023-05-14T15:45:44.999Z,19.90
2023-05-14T15:48:13.112Z,19.90
2023-05-14T15:50:41.906Z,19.90
2023-05-14T15:53:11.766Z,19.90
2023-05-14T15:55:40.106Z,19.80
2023-05-14T15:58:08.380Z,19.80
2023-05-14T16:00:36.638Z,19.80
2023-05-14T16:03:05.343Z,19.80
2023-05-14T16:05:33.807Z,19.80
2023-05-14T16:08:02.053Z,19.80
2023-05-14T16:10:47.033Z,19.80
2023-05-14T16:13:15.274Z,19.80
2023-05-14T16:15:43.516Z,19.80
2023-05-14T16:18:11.876Z,19.80
2023-05-14T16:20:40.189Z,19.80
2023-05-14T16:23:08.465Z,19.80
2023-05-14T16:25:36.824Z,19.70
2023-05-14T16:28:07.995Z,19.80
2023-05-14T16:30:36.291Z,19.70
2023-05-14T16:33:04.776Z,19.70
2023-05-14T16:35:33.116Z,19.70
2023-05-14T16:38:01.706Z,19.70
2023-05-14T16:40:30.322Z,19.70
2023-05-14T16:42:58.605Z,19.80
2023-05-14T16:45:28.327Z,19.80
2023-05-14T16:47:56.593Z,19.70
2023-05-14T16:50:24.931Z,19.60
2023-05-14T16:52:53.158Z,19.60
2023-05-14T16:55:21.709Z,19.60
2023-05-14T16:57:50.123Z,19.70
2023-05-14T17:00:18.627Z,19.70
2023-05-14T17:02:49.716Z,19.70
2023-05-14T17:05:18.493Z,19.60
2023-05-14T17:07:46.829Z,19.60
2023-05-14T17:10:15.065Z,19.60
2023-05-14T17:12:43.489Z,19.60
2023-05-14T17:15:12.711Z,19.50
2023-05-14T17:17:41.017Z,19.50
2023-05-14T17:20:14.125Z,19.50
2023-05-14T17:22:44.463Z,19.50
2023-05-14T17:25:12.778Z,19.50
2023-05-14T17:27:41.064Z,19.40
2023-05-14T17:30:10.899Z,19.40
2023-05-14T17:32:39.372Z,19.40
2023-05-14T17:35:09.640Z,19.30
2023-05-14T17:37:39.281Z,19.40
2023-05-14T17:40:09.373Z,19.30
2023-05-14T17:42:37.666Z,19.20
2023-05-14T17:45:07.396Z,19.30
2023-05-14T17:47:35.652Z,19.20
2023-05-14T17:50:04.103Z,19.20
2023-05-14T17:52:32.375Z,19.20
2023-05-14T17:55:02.014Z,19.20
2023-05-14T17:57:30.411Z,19.10
2023-05-14T17:59:58.783Z,19.10
2023-05-14T18:02:27.066Z,19.00
2023-05-14T18:04:55.387Z,19.00
2023-05-14T18:07:24.048Z,19.00
2023-05-14T18:09:52.316Z,19.00
2023-05-14T18:12:22.004Z,19.00
2023-05-14T18:14:50.294Z,18.90
2023-05-14T18:17:18.674Z,18.80
2023-05-14T18:19:46.968Z,18.80
2023-05-14T18:22:15.609Z,18.70
2023-05-14T18:24:44.430Z,18.80
2023-05-14T18:27:12.853Z,18.70
2023-05-14T18:29:43.401Z,18.70
2023-05-14T18:32:11.702Z,18.70
2023-05-14T18:34:39.926Z,18.70
2023-05-14T18:37:08.913Z,18.60
2023-05-14T18:39:37.131Z,18.60
2023-05-14T18:42:05.732Z,18.60
2023-05-14T18:44:34.025Z,18.60
2023-05-14T18:47:03.777Z,18.50
2023-05-14T18:49:32.009Z,18.50
2023-05-14T18:52:00.369Z,18.40
2023-05-14T18:54:28.946Z,18.40
2023-05-14T18:56:57.264Z,18.30
2023-05-14T18:59:25.607Z,18.30
2023-05-14T19:01:53.931Z,18.30
2023-05-14T19:04:24.172Z,18.20
2023-05-14T19:06:52.883Z,18.20
2023-05-14T19:09:21.382Z,18.20
2023-05-14T19:11:49.600Z,18.20
2023-05-14T19:14:17.926Z,18.20
2023-05-14T19:16:46.376Z,18.10
2023-05-14T19:19:14.977Z,18.00
2023-05-14T19:21:44.752Z,18.00
2023-05-14T19:24:13.198Z,18.00
2023-05-14T19:26:41.973Z,17.90
2023-05-14T19:29:10.260Z,17.90
2023-05-14T19:31:38.537Z,17.90
2023-05-14T19:34:06.939Z,17.80
2023-05-14T19:36:35.255Z,17.80
2023-05-14T19:39:05.259Z,17.80
2023-05-14T19:41:33.505Z,17.80
2023-05-14T19:44:01.826Z,17.80
2023-05-14T19:46:30.166Z,17.70
2023-05-14T19:48:58.443Z,17.70
2023-05-14T19:51:26.782Z,17.60
2023-05-14T19:53:55.133Z,17.50
2023-05-14T19:56:27.007Z,17.40
2023-05-14T19:58:55.670Z,17.50
2023-05-14T20:01:24.094Z,17.50
2023-05-14T20:03:52.377Z,17.40
2023-05-14T20:06:20.727Z,17.40
2023-05-14T20:08:48.995Z,17.30
2023-05-14T20:11:19.452Z,17.30
2023-05-14T20:13:49.240Z,17.30
2023-05-14T20:16:17.788Z,17.30
2023-05-14T20:18:46.495Z,17.40
2023-05-14T20:21:14.928Z,17.30
2023-05-14T20:23:43.173Z,17.30
2023-05-14T20:26:11.534Z,17.30
2023-05-14T20:28:39.869Z,17.30
2023-05-14T20:31:09.534Z,17.30
2023-05-14T20:33:38.085Z,17.30
2023-05-14T20:36:06.791Z,17.30
2023-05-14T20:38:35.317Z,17.30
2023-05-14T20:41:03.568Z,17.30
2023-05-14T20:43:31.896Z,17.30
2023-05-14T20:46:00.638Z,17.20
2023-05-14T20:48:30.455Z,17.20
2023-05-14T20:50:58.724Z,17.20
2023-05-14T20:53:28.316Z,17.10
2023-05-14T20:55:56.507Z,17.10
2023-05-14T20:58:24.788Z,17.10
2023-05-14T21:00:53.032Z,17.10
2023-05-14T21:03:21.497Z,17.00
2023-05-14T21:05:51.228Z,17.00
2023-05-14T21:08:19.510Z,17.00
2023-05-14T21:10:47.781Z,17.00
2023-05-14T21:13:16.527Z,17.00
2023-05-14T21:15:44.894Z,16.90
2023-05-14T21:18:13.993Z,16.90
2023-05-14T21:20:42.301Z,16.90
2023-05-14T21:23:12.722Z,16.90
2023-05-14T21:25:41.182Z,16.80
2023-05-14T21:28:09.423Z,16.90
2023-05-14T21:30:37.730Z,16.80
2023-05-14T21:33:05.986Z,16.80
2023-05-14T21:35:34.431Z,16.80
2023-05-14T21:38:02.664Z,16.70
2023-05-14T21:40:32.277Z,16.80
2023-05-14T21:43:00.482Z,16.70
2023-05-14T21:45:28.971Z,16.70
2023-05-14T21:47:57.432Z,16.70
2023-05-14T21:50:25.739Z,16.60
2023-05-14T21:52:54.028Z,16.60
2023-05-14T21:55:22.794Z,16.50
2023-05-14T21:57:52.930Z,16.50
2023-05-14T22:00:23.558Z,16.50
2023-05-14T22:02:53.250Z,16.50
2023-05-14T22:05:23.052Z,16.30
2023-05-14T22:07:52.041Z,16.30
2023-05-14T22:10:20.770Z,16.30
2023-05-14T22:12:48.940Z,16.20
2023-05-14T22:15:18.565Z,16.20
2023-05-14T22:17:47.466Z,16.20
2023-05-14T22:20:16.377Z,16.20
2023-05-14T22:22:44.677Z,16.20
2023-05-14T22:25:12.872Z,16.10
2023-05-14T22:27:41.133Z,16.00
2023-05-14T22:30:10.599Z,16.00
2023-05-14T22:32:40.505Z,16.00
2023-05-14T22:35:09.814Z,16.00
2023-05-14T22:37:38.119Z,16.00
2023-05-14T22:40:08.883Z,15.90
2023-05-14T22:42:37.191Z,15.80
2023-05-14T22:45:06.300Z,15.80
2023-05-14T22:47:34.593Z,15.80
2023-05-14T22:50:04.397Z,15.70
2023-05-14T22:52:32.717Z,15.70
2023-05-14T22:55:00.961Z,15.80
2023-05-14T22:57:29.236Z,15.80
2023-05-14T22:59:57.468Z,15.70
2023-05-14T23:02:25.741Z,15.60
2023-05-14T23:04:54.019Z,15.60
2023-05-14T23:07:23.891Z,15.60
2023-05-14T23:09:52.139Z,15.60
2023-05-14T23:12:20.337Z,15.50
2023-05-14T23:14:48.579Z,15.50
2023-05-14T23:17:18.925Z,15.40
2023-05-14T23:19:47.205Z,15.50
2023-05-14T23:22:15.414Z,15.40
2023-05-14T23:24:45.038Z,15.30
2023-05-14T23:27:13.467Z,15.20
2023-05-14T23:29:41.658Z,15.20
2023-05-14T23:32:10.036Z,15.20
2023-05-14T23:34:38.352Z,15.30
2023-05-14T23:37:06.880Z,15.20
2023-05-14T23:39:35.244Z,15.20
2023-05-14T23:42:04.960Z,15.20
2023-05-14T23:44:33.199Z,15.10
2023-05-14T23:47:01.522Z,15.10
2023-05-14T23:49:29.780Z,14.90
2023-05-14T23:51:58.083Z,14.90
2023-05-14T23:54:26.238Z,14.90
2023-05-14T23:56:54.599Z,14.90
2023-05-14T23:59:24.206Z,14.80
